createdAt,value
2017-09-25T00:03:28.462Z,24
2017-09-25T00:08:33.184Z,24
2017-09-25T00:13:38.916Z,24
2017-09-25T00:18:44.642Z,24
2017-09-25T00:23:50.036Z,24
2017-09-25T00:28:55.768Z,24
2017-09-25T00:34:00.495Z,24
2017-09-25T00:39:06.235Z,24
2017-09-25T00:44:12.312Z,24
2017-09-25T00:49:18.374Z,24
2017-09-25T00:54:23.105Z,24
2017-09-25T00:59:27.835Z,24
2017-09-25T01:04:32.891Z,24
2017-09-25T01:09:37.953Z,24
2017-09-25T01:14:43.013Z,24
2017-09-25T01:19:48.747Z,24
2017-09-25T01:24:54.810Z,24
2017-09-25T01:29:59.538Z,24
2017-09-25T01:35:04.264Z,24
2017-09-25T01:40:09.659Z,24
2017-09-25T01:45:15.053Z,24
2017-09-25T01:50:20.113Z,24
2017-09-25T01:55:24.848Z,23.9
2017-09-25T02:00:29.570Z,24
2017-09-25T02:05:34.629Z,23.9
2017-09-25T02:10:39.695Z,23.9
2017-09-25T02:15:44.426Z,23.9
2017-09-25T02:20:49.818Z,23.9
2017-09-25T02:25:55.549Z,23.9
2017-09-25T02:31:00.940Z,23.9
2017-09-25T02:36:06.669Z,23.9
2017-09-25T02:41:11.727Z,23.9
2017-09-25T02:46:17.459Z,23.9
2017-09-25T02:51:22.520Z,23.9
2017-09-25T02:56:27.917Z,23.9
2017-09-25T03:01:32.643Z,23.9
2017-09-25T03:06:38.370Z,23.9
2017-09-25T03:11:43.767Z,23.9
2017-09-25T03:16:48.156Z,23.9
2017-09-25T03:21:54.223Z,23.9
2017-09-25T03:26:59.619Z,23.9
2017-09-25T03:32:05.687Z,23.9
2017-09-25T03:37:10.749Z,23.9
2017-09-25T03:42:16.144Z,23.9
2017-09-25T03:47:21.870Z,23.9
2017-09-25T03:52:26.930Z,23.9
2017-09-25T03:57:32.323Z,23.9
2017-09-25T04:02:37.381Z,23.9
2017-09-25T04:07:42.453Z,23.9
2017-09-25T04:12:47.854Z,23.9
2017-09-25T04:17:52.912Z,23.9
2017-09-25T04:22:57.974Z,23.9
2017-09-25T04:28:02.696Z,23.9
2017-09-25T04:33:07.094Z,23.9
2017-09-25T04:38:12.505Z,23.9
2017-09-25T04:43:17.242Z,23.9
2017-09-25T04:48:21.972Z,23.9
2017-09-25T04:53:26.700Z,23.9
2017-09-25T04:58:32.110Z,23.9
2017-09-25T05:03:37.171Z,23.9
2017-09-25T05:08:41.571Z,23.9
2017-09-25T05:13:45.626Z,23.9
2017-09-25T05:18:51.024Z,23.9
2017-09-25T05:23:56.077Z,23.9
2017-09-25T05:29:01.806Z,23.9
2017-09-25T05:34:06.869Z,23.9
2017-09-25T05:39:12.599Z,23.9
2017-09-25T05:44:17.328Z,23.9
2017-09-25T05:49:22.726Z,23.9
2017-09-25T05:54:28.461Z,23.9
2017-09-25T05:59:33.856Z,23.8
2017-09-25T06:04:38.581Z,23.8
2017-09-25T06:09:44.312Z,23.8
2017-09-25T06:14:49.377Z,23.7
2017-09-25T06:19:54.109Z,23.7
2017-09-25T06:24:59.517Z,23.6
2017-09-25T06:30:04.577Z,23.5
2017-09-25T06:35:10.654Z,23.4
2017-09-25T06:40:16.041Z,23.4
2017-09-25T06:45:20.430Z,23.4
2017-09-25T06:50:24.820Z,23.5
2017-09-25T06:55:30.888Z,23.5
2017-09-25T07:00:36.958Z,23.6
2017-09-25T07:05:43.024Z,23.6
2017-09-25T07:10:49.087Z,23.6
2017-09-25T07:15:54.486Z,23.7
2017-09-25T07:20:59.880Z,23.7
2017-09-25T07:26:05.610Z,23.7
2017-09-25T07:31:10.677Z,23.7
2017-09-25T07:36:15.740Z,23.8
2017-09-25T07:41:20.805Z,23.8
2017-09-25T07:46:25.531Z,23.8
2017-09-25T07:51:30.924Z,23.8
2017-09-25T07:56:36.319Z,23.8
2017-09-25T08:01:41.384Z,23.8
2017-09-25T08:06:46.778Z,23.8
2017-09-25T08:11:52.507Z,23.8
2017-09-25T08:16:57.236Z,23.9
2017-09-25T08:22:02.633Z,23.9
2017-09-25T08:27:07.027Z,23.9
2017-09-25T08:32:13.098Z,23.9
2017-09-25T08:37:18.163Z,23.9
2017-09-25T08:42:23.556Z,23.9
2017-09-25T08:47:28.285Z,23.9
2017-09-25T08:52:33.355Z,23.9
2017-09-25T08:57:38.087Z,23.9
2017-09-25T09:02:43.815Z,23.9
2017-09-25T09:07:49.545Z,23.9
2017-09-25T09:12:54.273Z,24
2017-09-25T09:17:59.675Z,24
2017-09-25T09:23:05.072Z,24
2017-09-25T09:28:10.131Z,24
2017-09-25T09:33:15.528Z,24
2017-09-25T09:38:20.587Z,24
2017-09-25T09:43:25.987Z,24.1
2017-09-25T09:48:31.047Z,24.1
2017-09-25T09:53:36.444Z,24.1
2017-09-25T09:58:41.171Z,24.1
2017-09-25T10:03:46.566Z,24.1
2017-09-25T10:08:52.630Z,24.1
2017-09-25T10:13:58.362Z,24.1
2017-09-25T10:19:04.094Z,24.1
2017-09-25T10:24:08.821Z,24.1
2017-09-25T10:29:14.553Z,24.2
2017-09-25T10:34:19.954Z,24.2
2017-09-25T10:39:25.696Z,24.3
2017-09-25T10:44:31.096Z,24.4
2017-09-25T10:49:36.833Z,24.4
2017-09-25T10:54:42.234Z,24.5
2017-09-25T10:59:46.629Z,24.5
2017-09-25T11:04:51.080Z,24.5
2017-09-25T11:09:57.151Z,24.6
2017-09-25T11:15:01.880Z,24.6
2017-09-25T11:20:07.285Z,24.6
2017-09-25T11:25:12.683Z,24.6
2017-09-25T11:30:17.418Z,24.6
2017-09-25T11:35:22.491Z,24.6
2017-09-25T11:40:27.215Z,24.6
2017-09-25T11:45:32.278Z,24.6
2017-09-25T11:50:37.371Z,24.6
2017-09-25T11:55:42.070Z,24.5
2017-09-25T12:00:47.471Z,24.5
2017-09-25T12:05:52.201Z,24.5
2017-09-25T12:10:57.269Z,24.5
2017-09-25T12:16:01.668Z,24.5
2017-09-25T12:21:06.737Z,24.6
2017-09-25T12:26:12.135Z,24.6
2017-09-25T12:31:17.203Z,24.6
2017-09-25T12:36:22.272Z,24.6
2017-09-25T12:41:28.011Z,24.6
2017-09-25T12:46:33.417Z,24.7
2017-09-25T12:51:38.814Z,24.7
2017-09-25T12:56:43.897Z,24.7
2017-09-25T13:01:48.962Z,24.7
2017-09-25T13:06:54.364Z,24.7
2017-09-25T13:12:00.106Z,24.7
2017-09-25T13:17:05.863Z,24.7
2017-09-25T13:22:11.600Z,24.7
2017-09-25T13:27:17.347Z,24.7
2017-09-25T13:32:22.127Z,24.7
2017-09-25T13:37:27.187Z,24.8
2017-09-25T13:42:32.590Z,24.8
2017-09-25T13:47:38.348Z,24.7
2017-09-25T13:52:43.428Z,24.7
2017-09-25T13:57:49.159Z,24.7
2017-09-25T14:02:54.576Z,24.7
2017-09-25T14:08:00.011Z,24.7
2017-09-25T14:13:05.725Z,24.7
2017-09-25T14:18:11.476Z,24.7
2017-09-25T14:23:16.541Z,24.6
2017-09-25T14:28:22.066Z,24.6
2017-09-25T14:33:27.809Z,24.6
2017-09-25T14:38:33.077Z,24.6
2017-09-25T14:43:38.147Z,24.6
2017-09-25T14:48:43.921Z,24.5
2017-09-25T14:53:48.673Z,24.5
2017-09-25T14:58:54.410Z,24.5
2017-09-25T15:03:59.817Z,24.5
2017-09-25T15:09:04.882Z,24.5
2017-09-25T15:14:10.634Z,24.5
2017-09-25T15:19:15.354Z,24.5
2017-09-25T15:24:20.757Z,24.5
2017-09-25T15:29:25.823Z,24.5
2017-09-25T15:34:30.889Z,24.5
2017-09-25T15:39:35.960Z,24.5
2017-09-25T15:44:42.240Z,24.5
2017-09-25T15:49:47.309Z,24.5
2017-09-25T15:54:52.374Z,24.5
2017-09-25T15:59:57.438Z,24.5
2017-09-25T16:05:02.171Z,24.5
2017-09-25T16:10:07.904Z,24.5
2017-09-25T16:15:12.633Z,24.5
2017-09-25T16:20:18.376Z,24.5
2017-09-25T16:25:23.103Z,24.5
2017-09-25T16:30:27.831Z,24.4
2017-09-25T16:35:33.223Z,24.4
2017-09-25T16:40:37.959Z,24.4
2017-09-25T16:45:43.033Z,24.4
2017-09-25T16:50:48.093Z,24.4
2017-09-25T16:55:52.827Z,24.4
2017-09-25T17:00:58.897Z,24.4
2017-09-25T17:06:03.962Z,24.4
2017-09-25T17:11:09.693Z,24.4
2017-09-25T17:16:14.772Z,24.4
2017-09-25T17:21:20.171Z,24.4
2017-09-25T17:26:25.235Z,24.4
2017-09-25T17:31:30.297Z,24.4
2017-09-25T17:36:35.026Z,24.4
2017-09-25T17:41:39.759Z,24.4
2017-09-25T17:46:44.151Z,24.4
2017-09-25T17:51:48.876Z,24.4
2017-09-25T17:56:53.936Z,24.4
2017-09-25T18:02:00.008Z,24.4
2017-09-25T18:07:05.081Z,24.4
2017-09-25T18:12:10.486Z,24.4
2017-09-25T18:17:15.551Z,24.4
2017-09-25T18:22:21.629Z,24.4
2017-09-25T18:27:26.367Z,24.4
2017-09-25T18:32:31.117Z,24.4
2017-09-25T18:37:36.189Z,24.4
2017-09-25T18:42:41.264Z,24.4
2017-09-25T18:47:46.334Z,24.4
2017-09-25T18:52:51.403Z,24.4
2017-09-25T18:57:56.476Z,24.4
2017-09-25T19:03:01.802Z,24.4
2017-09-25T19:08:06.530Z,24.4
2017-09-25T19:13:11.953Z,24.4
2017-09-25T19:18:16.684Z,24.4
2017-09-25T19:23:22.085Z,24.4
2017-09-25T19:28:27.216Z,24.4
2017-09-25T19:33:31.919Z,24.5
2017-09-25T19:38:37.346Z,24.4
2017-09-25T19:43:42.760Z,24.4
2017-09-25T19:48:47.833Z,24.4
2017-09-25T19:53:53.232Z,24.4
2017-09-25T19:58:58.636Z,24.4
2017-09-25T20:04:03.031Z,24.4
2017-09-25T20:09:07.770Z,24.4
2017-09-25T20:14:13.176Z,24.4
2017-09-25T20:19:17.577Z,24.4
2017-09-25T20:24:23.318Z,24.4
2017-09-25T20:29:28.383Z,24.4
2017-09-25T20:34:33.790Z,24.4
2017-09-25T20:39:39.226Z,24.4
2017-09-25T20:44:43.646Z,24.4
2017-09-25T20:49:48.733Z,24.4
2017-09-25T20:54:53.471Z,24.4
2017-09-25T20:59:58.545Z,24.4
2017-09-25T21:05:03.950Z,24.4
2017-09-25T21:10:09.357Z,24.4
2017-09-25T21:15:13.422Z,24.4
2017-09-25T21:20:18.830Z,24.4
2017-09-25T21:25:24.231Z,24.4
2017-09-25T21:30:28.962Z,24.4
2017-09-25T21:35:33.694Z,24.3
2017-09-25T21:40:39.438Z,24.3
2017-09-25T21:45:44.170Z,24.4
2017-09-25T21:50:49.246Z,24.3
2017-09-25T21:55:53.980Z,24.3
2017-09-25T22:00:59.386Z,24.3
2017-09-25T22:06:05.128Z,24.3
2017-09-25T22:11:10.866Z,24.3
2017-09-25T22:16:15.598Z,24.3
2017-09-25T22:21:21.002Z,24.3
2017-09-25T22:26:26.065Z,24.3
2017-09-25T22:31:31.802Z,24.3
2017-09-25T22:36:36.869Z,24.3
2017-09-25T22:41:42.267Z,24.3
2017-09-25T22:46:47.331Z,24.3
2017-09-25T22:51:51.723Z,24.3
2017-09-25T22:56:57.126Z,24.3
2017-09-25T23:02:02.521Z,24.3
2017-09-25T23:07:07.583Z,24.3
2017-09-25T23:12:12.983Z,24.3
2017-09-25T23:17:18.715Z,24.3
2017-09-25T23:22:24.105Z,24.3
2017-09-25T23:27:28.830Z,24.3
2017-09-25T23:32:34.235Z,24.3
2017-09-25T23:37:38.962Z,24.2
2017-09-25T23:42:44.698Z,24.3
2017-09-25T23:47:49.757Z,24.2
2017-09-25T23:52:55.149Z,24.2
2017-09-25T23:57:59.876Z,24.2
